Time;durP1;ratioP1;P1;durP2;ratioP2;P2;SDS_P1;SDS_P2;PMS_P1;PMS_P2;Temp;Humidity;BMP_temperature;BMP_pressure;BME280_temperature;BME280_humidity;BME280_pressure;Samples;Min_cycle;Max_cycle;Signal;HPM_P1;HPM_P2
2022/07/14 00:00:22;;;;;;;9.07;1.70;;;13.80;99.90;;;;;;5019995;28;20540;-79
2022/07/14 00:02:48;;;;;;;9.75;2.05;;;13.80;99.90;;;;;;5002639;28;20068;-78
2022/07/14 00:05:13;;;;;;;11.95;2.00;;;13.80;99.90;;;;;;5001080;28;20057;-79
2022/07/14 00:07:39;;;;;;;7.78;1.88;;;13.70;99.90;;;;;;5021768;28;20033;-79
2022/07/14 00:10:05;;;;;;;11.02;2.42;;;13.80;99.90;;;;;;5001554;28;20033;-79
2022/07/14 00:12:31;;;;;;;13.32;2.78;;;13.70;99.90;;;;;;5005161;28;20128;-80
2022/07/14 00:14:56;;;;;;;8.73;2.38;;;13.70;99.90;;;;;;5005473;28;20160;-79
2022/07/14 00:17:22;;;;;;;8.85;2.75;;;13.70;99.90;;;;;;5004953;28;20029;-79
2022/07/14 00:19:47;;;;;;;10.52;1.80;;;13.60;99.90;;;;;;5019611;28;20148;-78
2022/07/14 00:22:13;;;;;;;12.73;2.17;;;13.50;99.90;;;;;;5003061;28;20041;-80
2022/07/14 00:24:38;;;;;;;7.93;1.77;;;13.50;99.90;;;;;;5005233;28;20637;-78
2022/07/14 00:27:04;;;;;;;7.22;1.83;;;13.40;99.90;;;;;;5008863;28;20041;-78
2022/07/14 00:29:30;;;;;;;8.40;1.90;;;13.30;99.90;;;;;;5003357;28;20514;-79
2022/07/14 00:31:55;;;;;;;9.30;2.05;;;13.30;99.90;;;;;;5003636;28;20111;-82
2022/07/14 00:34:21;;;;;;;11.55;2.42;;;13.30;99.90;;;;;;4999422;28;20034;-80
2022/07/14 00:36:46;;;;;;;9.98;2.10;;;13.30;99.90;;;;;;4987747;28;20046;-78
2022/07/14 00:39:12;;;;;;;10.63;2.55;;;13.30;99.90;;;;;;5002658;28;20046;-78
2022/07/14 00:41:37;;;;;;;11.48;1.90;;;13.30;99.90;;;;;;5005270;28;20042;-78
2022/07/14 00:44:03;;;;;;;8.70;2.20;;;13.30;99.90;;;;;;5005307;28;20041;-78
2022/07/14 00:46:29;;;;;;;11.88;2.47;;;13.30;99.90;;;;;;5005393;28;20072;-78
2022/07/14 00:48:55;;;;;;;11.27;1.92;;;13.30;99.90;;;;;;5001446;28;20123;-79
2022/07/14 00:51:20;;;;;;;7.10;1.70;;;13.30;99.90;;;;;;5000610;28;20068;-79
2022/07/14 00:53:55;;;;;;;13.80;2.30;;;13.20;99.90;;;;;;4999017;28;20045;-79
2022/07/14 00:56:20;;;;;;;9.43;1.98;;;13.30;99.90;;;;;;4996596;28;20128;-79
2022/07/14 00:58:46;;;;;;;10.27;1.65;;;13.20;99.90;;;;;;5016109;28;20042;-79
2022/07/14 01:01:12;;;;;;;9.70;2.20;;;13.20;99.90;;;;;;5003340;28;20084;-78
2022/07/14 01:03:37;;;;;;;9.43;1.90;;;13.20;99.90;;;;;;5002187;28;20710;-78
2022/07/14 01:06:04;;;;;;;10.32;1.90;;;13.10;99.90;;;;;;4999916;28;20127;-79
2022/07/14 01:08:29;;;;;;;10.98;1.98;;;13.10;99.90;;;;;;4998128;28;20073;-79
2022/07/14 01:10:55;;;;;;;10.93;2.10;;;13.00;99.90;;;;;;4997571;28;20117;-79
2022/07/14 01:13:20;;;;;;;8.38;2.67;;;13.00;99.90;;;;;;5002829;28;20045;-79
2022/07/14 01:15:46;;;;;;;7.22;1.80;;;13.00;99.90;;;;;;4995852;28;20038;-79
2022/07/14 01:18:12;;;;;;;8.68;1.90;;;13.00;99.90;;;;;;4996623;28;20123;-79
2022/07/14 01:20:37;;;;;;;11.00;1.80;;;13.00;99.90;;;;;;4999738;28;20096;-79
2022/07/14 01:23:03;;;;;;;4.63;1.65;;;12.90;99.90;;;;;;5012786;28;20492;-78
2022/07/14 01:25:29;;;;;;;14.00;2.50;;;12.90;99.90;;;;;;4997988;28;20111;-79
2022/07/14 01:27:54;;;;;;;10.68;1.95;;;12.80;99.90;;;;;;5013052;28;20095;-78
2022/07/14 01:30:20;;;;;;;7.70;1.42;;;12.80;99.90;;;;;;5003956;28;20049;-79
2022/07/14 01:32:46;;;;;;;10.45;1.85;;;12.80;99.90;;;;;;4998196;28;20041;-79
2022/07/14 01:35:12;;;;;;;7.65;1.27;;;12.80;99.90;;;;;;4999028;28;20154;-78
2022/07/14 01:37:38;;;;;;;8.35;1.58;;;12.70;99.90;;;;;;4998743;28;20048;-79
2022/07/14 01:40:05;;;;;;;13.23;2.80;;;12.70;99.90;;;;;;4999100;28;20500;-79
2022/07/14 01:42:30;;;;;;;11.50;2.25;;;12.70;99.90;;;;;;4999231;28;20086;-79
2022/07/14 01:44:56;;;;;;;12.73;2.33;;;12.60;99.90;;;;;;4997766;28;20033;-79
2022/07/14 01:47:21;;;;;;;10.35;2.30;;;12.70;99.90;;;;;;5012897;28;20067;-79
2022/07/14 01:49:47;;;;;;;9.75;1.98;;;12.80;99.90;;;;;;4993814;28;20046;-80
2022/07/14 01:52:13;;;;;;;10.85;1.70;;;12.80;99.90;;;;;;5010005;28;20045;-79
2022/07/14 01:54:38;;;;;;;12.90;3.20;;;12.80;99.90;;;;;;4996047;28;20029;-79
2022/07/14 01:57:06;;;;;;;11.20;2.50;;;12.80;99.90;;;;;;4994347;28;20164;-79
2022/07/14 01:59:32;;;;;;;11.75;3.38;;;12.90;99.90;;;;;;4992968;28;20140;-80
2022/07/14 02:01:57;;;;;;;7.43;2.25;;;12.90;99.90;;;;;;5012419;28;20045;-80
2022/07/14 02:04:23;;;;;;;7.22;1.30;;;12.90;99.90;;;;;;5001153;28;20724;-80
2022/07/14 02:06:53;;;;;;;5.93;2.75;;;12.80;99.90;;;;;;4995469;28;20494;-79
2022/07/14 02:09:20;;;;;;;3.22;0.70;;;12.80;99.90;;;;;;4998877;28;20045;-79
2022/07/14 02:14:33;;;;;;;3.97;1.23;;;12.70;99.90;;;;;;4996978;28;20037;-79
2022/07/14 02:16:59;;;;;;;4.55;1.73;;;12.60;99.90;;;;;;4995163;28;20044;-79
2022/07/14 02:19:25;;;;;;;13.48;2.55;;;12.50;99.90;;;;;;5016136;28;20061;-79
2022/07/14 02:21:52;;;;;;;7.13;2.53;;;12.40;99.90;;;;;;4995310;28;20195;-79
2022/07/14 02:24:20;;;;;;;8.80;2.70;;;12.50;99.90;;;;;;4996697;28;20037;-80
2022/07/14 02:26:45;;;;;;;4.72;1.90;;;12.50;99.90;;;;;;4977950;28;20037;-79
2022/07/14 02:29:11;;;;;;;2.53;0.40;;;12.40;99.90;;;;;;5013553;28;20522;-79
2022/07/14 02:31:37;;;;;;;6.80;1.35;;;12.40;99.90;;;;;;4980473;28;20048;-79
2022/07/14 02:34:04;;;;;;;9.30;2.70;;;12.30;99.90;;;;;;4997005;28;20056;-79
2022/07/14 02:36:30;;;;;;;6.28;1.75;;;12.30;99.90;;;;;;4997470;28;20037;-78
2022/07/14 02:38:55;;;;;;;5.70;1.73;;;12.30;99.90;;;;;;4997232;28;20045;-79
2022/07/14 02:41:21;;;;;;;7.00;1.90;;;12.30;99.90;;;;;;4995204;28;20056;-78
2022/07/14 02:43:47;;;;;;;4.45;1.48;;;12.40;99.90;;;;;;5000340;28;20048;-78
2022/07/14 02:46:13;;;;;;;5.60;1.85;;;12.30;99.90;;;;;;4999596;28;20049;-79
2022/07/14 02:48:38;;;;;;;5.85;1.08;;;12.40;99.90;;;;;;4997602;28;20041;-79
2022/07/14 02:51:06;;;;;;;3.70;1.08;;;12.10;99.90;;;;;;4994679;28;20473;-79
2022/07/14 02:53:34;;;;;;;2.97;0.90;;;12.20;99.90;;;;;;5013523;28;20045;-80
2022/07/14 02:56:00;;;;;;;1.65;0.63;;;12.20;99.90;;;;;;5011399;28;20045;-78
2022/07/14 02:58:26;;;;;;;1.75;0.40;;;12.10;99.90;;;;;;5015312;28;20077;-79
2022/07/14 03:00:52;;;;;;;2.75;0.70;;;12.00;99.90;;;;;;4995810;28;20124;-80
2022/07/14 03:03:18;;;;;;;2.90;0.60;;;11.90;99.90;;;;;;4997902;28;20050;-79
2022/07/14 03:05:44;;;;;;;2.72;1.20;;;11.70;99.90;;;;;;4995542;28;20526;-79
2022/07/14 03:08:10;;;;;;;4.60;1.10;;;11.50;99.90;;;;;;4997286;28;20271;-80
2022/07/14 03:10:35;;;;;;;1.95;1.00;;;11.50;99.90;;;;;;4998427;28;20764;-79
2022/07/14 03:13:02;;;;;;;3.28;0.90;;;11.40;99.90;;;;;;5011999;28;20040;-79
2022/07/14 03:15:27;;;;;;;4.93;1.38;;;11.30;99.90;;;;;;4998137;28;20087;-79
2022/07/14 03:17:53;;;;;;;4.20;1.70;;;11.30;99.90;;;;;;4996329;28;20050;-80
2022/07/14 03:20:18;;;;;;;5.95;2.17;;;11.30;99.90;;;;;;4999631;28;20069;-78
2022/07/14 03:22:45;;;;;;;4.03;1.83;;;11.30;99.90;;;;;;4995428;28;20435;-79
2022/07/14 03:25:11;;;;;;;8.23;1.80;;;11.40;99.90;;;;;;4994082;28;20053;-80
2022/07/14 03:27:38;;;;;;;6.30;1.90;;;11.50;99.90;;;;;;4998473;28;20033;-80
2022/07/14 03:30:05;;;;;;;7.63;2.08;;;11.50;99.90;;;;;;4993108;28;20077;-79
2022/07/14 03:32:31;;;;;;;2.70;1.17;;;11.60;99.90;;;;;;4998419;28;20042;-80
2022/07/14 03:34:57;;;;;;;4.88;2.25;;;11.70;99.90;;;;;;4995650;28;20034;-80
2022/07/14 03:37:23;;;;;;;4.80;1.73;;;11.70;99.90;;;;;;5000308;28;20124;-79
2022/07/14 03:39:49;;;;;;;3.75;1.55;;;11.70;99.90;;;;;;5000169;28;20050;-78
2022/07/14 03:42:15;;;;;;;3.70;1.25;;;11.80;99.90;;;;;;5000576;28;20419;-79
2022/07/14 03:44:41;;;;;;;3.40;1.40;;;11.80;99.90;;;;;;4999792;28;20064;-79
2022/07/14 03:47:07;;;;;;;4.00;1.45;;;11.80;99.90;;;;;;5000003;28;20064;-80
2022/07/14 03:49:33;;;;;;;4.25;1.35;;;11.90;99.90;;;;;;5017424;28;20030;-79
2022/07/14 03:51:58;;;;;;;3.58;1.33;;;11.90;99.90;;;;;;5001827;28;20128;-79
2022/07/14 03:54:24;;;;;;;2.35;1.02;;;11.80;99.90;;;;;;5000443;28;20041;-79
2022/07/14 03:56:49;;;;;;;1.85;0.98;;;11.80;99.90;;;;;;5016881;28;20171;-79
2022/07/14 03:59:15;;;;;;;6.35;1.65;;;11.70;99.90;;;;;;5014214;28;20045;-79
2022/07/14 04:01:40;;;;;;;6.00;1.50;;;11.70;99.90;;;;;;4998785;28;20045;-78
2022/07/14 04:04:06;;;;;;;3.95;1.30;;;11.50;99.90;;;;;;5007576;28;20107;-79
2022/07/14 04:06:32;;;;;;;5.22;1.20;;;11.50;99.90;;;;;;4986470;28;20111;-80
2022/07/14 04:08:59;;;;;;;5.22;1.45;;;11.40;99.90;;;;;;4999734;28;20037;-80
2022/07/14 04:11:24;;;;;;;5.28;1.67;;;11.40;99.90;;;;;;5001055;28;20111;-78
2022/07/14 04:13:50;;;;;;;5.57;1.90;;;11.40;99.90;;;;;;5017540;28;20033;-80
2022/07/14 04:16:16;;;;;;;6.68;2.50;;;11.40;99.90;;;;;;5000781;28;20071;-78
2022/07/14 04:18:41;;;;;;;7.32;2.55;;;11.60;99.90;;;;;;5005952;28;20099;-79
2022/07/14 04:21:08;;;;;;;5.03;1.90;;;11.90;99.90;;;;;;5000956;28;20419;-79
2022/07/14 04:23:35;;;;;;;2.50;1.25;;;12.50;99.90;;;;;;5003386;28;20072;-80
2022/07/14 04:26:02;;;;;;;4.57;2.15;;;13.20;99.90;;;;;;4996003;28;20506;-79
2022/07/14 04:28:28;;;;;;;6.40;1.70;;;14.30;99.90;;;;;;5000339;28;20052;-80
2022/07/14 04:30:53;;;;;;;7.18;1.75;;;15.40;99.90;;;;;;5008641;28;20109;-78
2022/07/14 04:33:23;;;;;;;8.50;1.60;;;16.00;99.90;;;;;;5007973;28;20100;-80
2022/07/14 04:35:49;;;;;;;7.28;1.20;;;16.80;99.90;;;;;;5023244;28;20056;-79
2022/07/14 04:38:15;;;;;;;4.15;1.20;;;17.20;99.90;;;;;;5023886;28;20049;-78
2022/07/14 04:40:51;;;;;;;3.88;1.02;;;17.70;99.90;;;;;;5001956;28;20045;-80
2022/07/14 04:43:17;;;;;;;3.88;1.25;;;18.30;99.90;;;;;;5004204;28;20053;-78
2022/07/14 04:45:45;;;;;;;3.78;0.98;;;19.00;99.90;;;;;;5022739;28;20050;-79
2022/07/14 04:48:11;;;;;;;7.18;1.20;;;19.70;99.90;;;;;;5008981;28;20060;-80
2022/07/14 04:53:21;;;;;;;5.88;1.25;;;19.90;99.90;;;;;;5007898;28;20136;-76
2022/07/14 04:55:46;;;;;;;8.35;1.88;;;20.20;99.90;;;;;;5007040;28;20152;-79
2022/07/14 04:58:18;;;;;;;8.23;1.63;;;20.20;99.90;;;;;;5001956;28;20061;-83
2022/07/14 05:00:49;;;;;;;4.40;1.20;;;19.90;99.90;;;;;;4999083;28;20046;-83
2022/07/14 05:03:14;;;;;;;4.32;1.15;;;19.60;99.90;;;;;;5004787;28;20853;-81
2022/07/14 05:05:40;;;;;;;4.80;1.30;;;19.10;99.90;;;;;;5024910;28;20045;-81
2022/07/14 05:08:06;;;;;;;3.90;1.27;;;18.80;99.90;;;;;;5005819;28;20045;-80
2022/07/14 05:10:31;;;;;;;8.02;1.67;;;18.70;99.90;;;;;;4985828;28;20049;-81
2022/07/14 05:12:57;;;;;;;22.70;3.05;;;19.00;99.90;;;;;;5003476;28;20049;-79
2022/07/14 05:15:23;;;;;;;44.25;4.07;;;19.10;99.90;;;;;;5004553;28;20049;-77
2022/07/14 05:17:48;;;;;;;33.03;3.63;;;18.90;99.90;;;;;;5025214;28;20052;-79
2022/07/14 05:20:14;;;;;;;13.82;2.55;;;18.70;99.90;;;;;;5001505;28;20624;-80
2022/07/14 05:22:42;;;;;;;24.70;3.47;;;19.10;99.90;;;;;;5005837;28;20492;-83
2022/07/14 05:25:09;;;;;;;28.85;3.42;;;20.60;99.90;;;;;;5014729;28;20048;-80
2022/07/14 05:27:36;;;;;;;17.60;2.42;;;22.20;99.90;;;;;;5005552;28;20065;-83
2022/07/14 05:30:07;;;;;;;21.35;1.88;;;23.90;99.90;;;;;;5001645;28;20104;-81
2022/07/14 05:32:32;;;;;;;17.45;2.35;;;25.50;99.90;;;;;;4985583;28;20069;-81
2022/07/14 05:34:58;;;;;;;9.15;2.03;;;26.40;99.90;;;;;;5000759;28;20041;-81
2022/07/14 05:37:24;;;;;;;9.82;1.40;;;27.20;99.90;;;;;;5002023;28;20385;-80
2022/07/14 05:39:50;;;;;;;5.70;1.63;;;27.60;99.90;;;;;;4988145;28;20555;-80
2022/07/14 05:42:20;;;;;;;5.50;1.15;;;27.20;99.90;;;;;;5020206;28;20209;-81
2022/07/14 05:44:46;;;;;;;6.60;1.63;;;26.30;99.90;;;;;;5018468;28;20515;-82
2022/07/14 05:47:12;;;;;;;6.55;1.45;;;25.60;99.90;;;;;;5019621;28;20037;-82
2022/07/14 05:49:44;;;;;;;8.05;1.17;;;24.80;99.90;;;;;;5002164;28;20658;-81
2022/07/14 05:52:13;;;;;;;7.72;1.65;;;24.30;99.90;;;;;;5013831;28;20109;-80
2022/07/14 05:54:39;;;;;;;8.18;1.50;;;24.00;99.90;;;;;;5004218;28;20053;-80
2022/07/14 05:57:05;;;;;;;7.03;1.23;;;23.60;99.90;;;;;;5011274;28;20048;-77
2022/07/14 05:59:31;;;;;;;4.75;1.08;;;23.30;99.90;;;;;;5020741;28;20037;-79
2022/07/14 06:01:56;;;;;;;7.55;1.33;;;23.20;99.90;;;;;;5004320;28;20056;-78
2022/07/14 06:04:22;;;;;;;4.85;1.30;;;23.20;99.90;;;;;;4989733;28;20077;-79
2022/07/14 06:06:48;;;;;;;6.88;1.50;;;23.00;99.90;;;;;;5016578;28;20046;-78
2022/07/14 06:09:14;;;;;;;7.55;1.25;;;23.00;99.90;;;;;;4997761;28;20610;-78
2022/07/14 06:11:41;;;;;;;7.88;1.17;;;23.00;99.90;;;;;;5021916;28;20553;-80
2022/07/14 06:14:07;;;;;;;7.47;0.90;;;23.00;99.90;;;;;;5016385;28;20570;-78
2022/07/14 06:16:33;;;;;;;5.82;1.40;;;23.00;99.90;;;;;;5012443;28;20093;-78
2022/07/14 06:18:59;;;;;;;5.65;0.98;;;23.00;99.90;;;;;;5014532;28;20080;-78
2022/07/14 06:21:25;;;;;;;8.88;0.98;;;23.10;99.90;;;;;;4999810;28;20516;-78
2022/07/14 06:23:51;;;;;;;5.93;1.40;;;23.30;99.90;;;;;;5017406;28;20705;-79
2022/07/14 06:26:16;;;;;;;4.85;0.85;;;23.30;99.90;;;;;;5017471;28;20056;-79
2022/07/14 06:28:42;;;;;;;5.45;0.95;;;23.40;99.90;;;;;;5011168;28;20045;-78
2022/07/14 06:31:08;;;;;;;4.00;1.08;;;23.40;99.90;;;;;;5011755;28;20050;-78
2022/07/14 06:33:34;;;;;;;4.82;1.38;;;23.20;99.90;;;;;;5010535;28;20045;-78
2022/07/14 06:35:59;;;;;;;6.13;0.88;;;23.30;99.90;;;;;;5005307;28;20492;-77
2022/07/14 06:38:25;;;;;;;4.47;0.80;;;23.40;99.90;;;;;;5012961;28;20076;-79
2022/07/14 06:40:50;;;;;;;3.97;1.08;;;23.50;99.90;;;;;;5017124;28;20037;-78
2022/07/14 06:43:16;;;;;;;4.47;0.80;;;23.50;99.90;;;;;;5005749;28;20840;-78
2022/07/14 06:45:42;;;;;;;4.60;0.90;;;23.60;99.90;;;;;;5009953;28;20042;-78
2022/07/14 06:48:07;;;;;;;4.78;0.70;;;23.70;99.90;;;;;;5021202;28;20049;-79
2022/07/14 06:50:33;;;;;;;5.78;1.20;;;23.80;99.90;;;;;;5008279;28;20045;-78
2022/07/14 06:52:59;;;;;;;3.72;0.73;;;23.80;99.90;;;;;;5004213;28;20408;-78
2022/07/14 06:55:25;;;;;;;5.10;1.08;;;23.70;99.90;;;;;;4999383;28;20045;-78
2022/07/14 06:57:51;;;;;;;4.95;1.08;;;23.50;99.90;;;;;;5006018;28;20088;-77
2022/07/14 07:00:18;;;;;;;4.00;0.77;;;23.60;99.90;;;;;;5012491;28;20441;-77
2022/07/14 07:02:43;;;;;;;3.45;0.70;;;23.70;99.90;;;;;;4989451;28;20034;-78
2022/07/14 07:07:57;;;;;;;3.65;1.00;;;23.80;99.90;;;;;;5020666;28;20067;-79
2022/07/14 07:10:23;;;;;;;4.32;0.90;;;23.80;99.90;;;;;;5009965;28;20041;-78
2022/07/14 07:12:48;;;;;;;7.40;1.15;;;23.40;99.90;;;;;;5021107;28;20045;-78
2022/07/14 07:15:14;;;;;;;7.47;0.65;;;23.50;99.90;;;;;;5008996;28;20510;-79
2022/07/14 07:17:40;;;;;;;8.93;0.93;;;23.30;99.90;;;;;;5002047;28;20037;-78
2022/07/14 07:20:06;;;;;;;4.60;1.08;;;23.20;99.90;;;;;;5011688;28;20045;-78
2022/07/14 07:22:31;;;;;;;5.10;1.00;;;23.50;99.90;;;;;;5007586;28;20045;-78
2022/07/14 07:24:57;;;;;;;3.92;0.90;;;23.80;99.90;;;;;;5006794;28;20693;-78
2022/07/14 07:27:23;;;;;;;4.30;1.13;;;23.90;99.90;;;;;;5014927;28;20392;-78
2022/07/14 07:29:48;;;;;;;6.85;0.70;;;24.30;99.90;;;;;;4995140;28;20045;-78
2022/07/14 07:32:14;;;;;;;5.63;0.90;;;24.60;99.90;;;;;;5009921;28;20037;-78
2022/07/14 07:34:39;;;;;;;3.75;0.60;;;24.60;99.90;;;;;;5009211;28;20041;-78
2022/07/14 07:37:05;;;;;;;3.40;0.60;;;24.60;99.90;;;;;;5022927;28;20112;-78
2022/07/14 07:39:31;;;;;;;9.25;0.82;;;24.50;99.90;;;;;;5017613;28;20160;-79
2022/07/14 07:42:00;;;;;;;3.17;0.43;;;24.20;99.90;;;;;;5003391;28;20061;-78
2022/07/14 07:44:30;;;;;;;5.15;0.60;;;24.10;99.90;;;;;;5016914;28;20497;-78
2022/07/14 07:46:56;;;;;;;4.22;0.75;;;24.30;99.90;;;;;;5008390;28;20057;-78
2022/07/14 07:49:21;;;;;;;6.10;0.95;;;24.50;99.90;;;;;;5017342;28;20041;-78
2022/07/14 07:51:47;;;;;;;6.80;0.77;;;24.40;99.90;;;;;;5010258;28;20450;-78
2022/07/14 07:54:12;;;;;;;3.22;0.70;;;24.40;99.90;;;;;;5009589;28;20096;-79
2022/07/14 07:56:38;;;;;;;3.65;0.70;;;24.30;99.90;;;;;;5011840;28;20088;-79
2022/07/14 07:59:03;;;;;;;4.00;0.90;;;24.40;99.90;;;;;;5013104;28;20629;-79
2022/07/14 08:01:29;;;;;;;3.47;0.95;;;24.50;99.90;;;;;;5010637;28;20136;-78
2022/07/14 08:03:54;;;;;;;4.72;0.65;;;24.30;99.90;;;;;;5024694;28;20502;-79
2022/07/14 08:06:20;;;;;;;4.63;0.60;;;23.90;99.90;;;;;;5017492;28;20527;-80
2022/07/14 08:08:46;;;;;;;2.50;0.43;;;23.80;99.90;;;;;;5023383;28;20047;-78
2022/07/14 08:11:12;;;;;;;6.22;0.50;;;23.80;99.90;;;;;;5020132;28;20045;-78
2022/07/14 08:13:38;;;;;;;3.65;0.68;;;24.00;99.90;;;;;;5007361;28;20048;-81
2022/07/14 08:16:04;;;;;;;6.40;0.65;;;24.20;99.90;;;;;;5008056;28;20033;-79
2022/07/14 08:18:29;;;;;;;4.65;0.73;;;24.60;99.90;;;;;;5001199;28;20076;-78
2022/07/14 08:20:55;;;;;;;5.28;0.98;;;24.90;99.90;;;;;;5005218;28;20076;-79
2022/07/14 08:23:20;;;;;;;2.63;0.65;;;25.30;99.90;;;;;;5010874;28;20080;-79
2022/07/14 08:25:46;;;;;;;4.22;0.57;;;25.60;99.40;;;;;;5005804;28;20206;-79
2022/07/14 08:28:11;;;;;;;4.72;0.93;;;25.80;98.90;;;;;;5002947;28;20053;-79
2022/07/14 08:30:37;;;;;;;4.65;0.70;;;25.80;98.40;;;;;;5021539;28;20041;-79
2022/07/14 08:33:03;;;;;;;4.00;0.50;;;25.60;97.40;;;;;;5021088;28;20048;-80
2022/07/14 08:35:28;;;;;;;3.13;0.60;;;25.60;97.80;;;;;;5021545;28;20033;-79
2022/07/14 08:37:55;;;;;;;5.32;0.73;;;25.60;98.10;;;;;;5005745;28;20079;-79
2022/07/14 08:40:24;;;;;;;1.90;0.32;;;25.70;98.70;;;;;;5022254;28;20377;-78
2022/07/14 08:42:53;;;;;;;2.95;0.50;;;25.70;99.40;;;;;;5006064;28;20041;-79
2022/07/14 08:45:22;;;;;;;4.80;0.73;;;25.80;99.30;;;;;;5015067;28;20037;-79
2022/07/14 08:47:48;;;;;;;1.83;0.50;;;25.70;98.80;;;;;;5020303;28;20094;-79
2022/07/14 08:50:19;;;;;;;10.52;0.77;;;25.60;98.70;;;;;;5018885;28;20108;-78
2022/07/14 08:52:54;;;;;;;3.28;0.50;;;25.40;99.00;;;;;;5008118;28;20038;-80
2022/07/14 08:55:23;;;;;;;3.00;0.47;;;25.30;97.90;;;;;;5014125;28;20033;-80
2022/07/14 08:58:13;;;;;;;3.05;0.60;;;25.10;97.60;;;;;;5011045;28;20102;-79
2022/07/14 09:00:39;;;;;;;3.35;0.88;;;24.80;97.80;;;;;;4986746;28;20053;-78
2022/07/14 09:03:05;;;;;;;3.15;0.68;;;24.70;97.70;;;;;;5019413;28;20045;-79
2022/07/14 09:05:31;;;;;;;3.53;0.45;;;24.80;98.30;;;;;;5007922;28;20044;-79
2022/07/14 09:07:59;;;;;;;2.95;0.75;;;24.80;98.40;;;;;;5007977;28;20052;-79
2022/07/14 09:10:28;;;;;;;5.40;0.38;;;24.70;97.00;;;;;;5021355;28;20033;-79
2022/07/14 09:13:31;;;;;;;1.40;0.47;;;24.50;97.20;;;;;;5017310;28;20099;-79
2022/07/14 09:16:14;;;;;;;9.70;0.75;;;24.50;97.50;;;;;;4915322;29;20078;-78
2022/07/14 09:18:41;;;;;;;6.22;0.50;;;24.50;98.30;;;;;;4981491;28;20115;-80
2022/07/14 09:21:19;;;;;;;1.60;0.52;;;24.50;98.50;;;;;;5018290;28;20504;-80
2022/07/14 09:23:44;;;;;;;5.03;0.73;;;24.50;99.60;;;;;;5005969;28;20067;-79
2022/07/14 09:26:19;;;;;;;1.25;0.38;;;24.50;99.20;;;;;;5003449;28;20077;-78
2022/07/14 09:28:48;;;;;;;6.70;0.77;;;24.40;99.00;;;;;;5005488;28;20045;-80
2022/07/14 09:31:36;;;;;;;5.32;0.63;;;24.50;98.90;;;;;;5013474;28;20527;-81
2022/07/14 09:34:06;;;;;;;4.90;0.68;;;24.40;99.20;;;;;;5021988;28;20484;-80
2022/07/14 09:36:37;;;;;;;3.22;0.70;;;24.30;99.50;;;;;;5005762;28;20523;-79
2022/07/14 09:39:12;;;;;;;4.75;0.30;;;24.20;99.80;;;;;;5005977;28;20041;-78
2022/07/14 09:41:53;;;;;;;6.72;0.88;;;24.00;99.90;;;;;;5010242;28;20052;-79
2022/07/14 09:44:22;;;;;;;5.68;0.60;;;23.90;99.80;;;;;;5004294;28;20575;-78
2022/07/14 09:46:56;;;;;;;1.45;0.35;;;23.90;99.90;;;;;;5003351;28;20046;-78
2022/07/14 09:49:24;;;;;;;4.72;0.60;;;23.90;99.90;;;;;;5004075;28;20526;-81
2022/07/14 09:52:01;;;;;;;2.00;0.60;;;23.80;99.90;;;;;;4987523;28;20033;-78
2022/07/14 09:54:48;;;;;;;14.93;1.00;;;24.00;99.90;;;;;;5002760;28;20042;-80
2022/07/14 09:57:34;;;;;;;3.00;0.30;;;23.90;98.60;;;;;;4990639;28;20037;-79
2022/07/14 10:00:16;;;;;;;2.53;0.40;;;23.90;99.70;;;;;;5011055;28;20129;-80
2022/07/14 10:02:56;;;;;;;2.90;0.70;;;23.90;99.60;;;;;;5010633;28;20435;-81
2022/07/14 10:06:18;;;;;;;1.95;0.30;;;23.80;99.50;;;;;;4995082;28;20037;-82
2022/07/14 10:09:08;;;;;;;7.72;0.40;;;23.60;99.40;;;;;;4970218;28;20663;-83
2022/07/14 10:11:38;;;;;;;1.42;0.30;;;23.40;99.80;;;;;;4969334;28;20093;-81
2022/07/14 10:14:06;;;;;;;4.22;0.38;;;23.30;99.90;;;;;;4957137;28;20543;-80
2022/07/14 10:16:45;;;;;;;2.67;0.30;;;23.20;99.90;;;;;;5007150;28;20149;-81
2022/07/14 10:19:18;;;;;;;1.38;0.43;;;23.10;99.90;;;;;;5029544;28;20041;-79
2022/07/14 10:21:45;;;;;;;1.50;0.30;;;23.10;99.90;;;;;;5010264;28;20131;-79
2022/07/14 10:24:12;;;;;;;3.47;0.38;;;23.10;99.90;;;;;;5025839;28;20052;-80
2022/07/14 10:26:38;;;;;;;4.30;0.40;;;23.10;99.90;;;;;;5009305;28;20046;-80
2022/07/14 10:29:06;;;;;;;1.33;0.30;;;23.10;99.90;;;;;;5007707;28;20052;-79
2022/07/14 10:32:09;;;;;;;4.07;0.43;;;23.10;99.90;;;;;;5027604;28;20052;-80
2022/07/14 10:34:44;;;;;;;1.60;0.30;;;23.10;99.90;;;;;;5008581;28;20084;-80
2022/07/14 10:37:17;;;;;;;5.53;0.70;;;23.10;99.90;;;;;;5009827;28;20045;-80
2022/07/14 10:40:01;;;;;;;4.68;0.40;;;23.50;99.90;;;;;;5026278;28;20041;-79
2022/07/14 10:42:41;;;;;;;2.78;0.30;;;23.10;99.90;;;;;;5012724;28;20033;-79
2022/07/14 10:45:07;;;;;;;1.17;0.20;;;23.20;99.90;;;;;;5008510;28;20052;-79
2022/07/14 10:47:45;;;;;;;2.35;0.57;;;23.30;99.90;;;;;;5017664;28;20037;-80
2022/07/14 10:50:12;;;;;;;6.55;0.60;;;23.40;99.90;;;;;;5012823;28;20045;-80
2022/07/14 10:52:50;;;;;;;2.90;0.50;;;23.50;99.90;;;;;;5020372;28;20093;-80
2022/07/14 10:55:23;;;;;;;0.98;0.50;;;23.50;99.90;;;;;;5028429;28;20046;-80
2022/07/14 10:58:03;;;;;;;4.57;0.50;;;23.30;99.90;;;;;;5006085;28;20037;-79
2022/07/14 11:00:40;;;;;;;2.92;0.50;;;23.40;99.90;;;;;;5006936;28;20073;-80
2022/07/14 11:03:25;;;;;;;4.03;0.50;;;23.30;99.90;;;;;;5022764;28;20044;-81
2022/07/14 11:06:03;;;;;;;2.13;0.32;;;23.30;99.90;;;;;;5013674;28;20144;-80
2022/07/14 11:08:30;;;;;;;3.75;0.88;;;23.30;99.90;;;;;;5004053;28;20057;-80
2022/07/14 11:10:57;;;;;;;4.15;0.38;;;23.20;99.90;;;;;;5007226;28;20579;-79
2022/07/14 11:13:23;;;;;;;4.43;0.52;;;23.00;99.90;;;;;;5008994;28;20053;-80
2022/07/14 11:15:53;;;;;;;6.63;0.60;;;22.90;99.90;;;;;;5019456;28;20073;-80
2022/07/14 11:18:18;;;;;;;3.33;0.52;;;22.80;99.90;;;;;;5011498;28;20816;-79
2022/07/14 11:20:51;;;;;;;1.80;0.25;;;22.80;99.90;;;;;;5007869;28;20053;-79
2022/07/14 11:23:24;;;;;;;1.92;0.50;;;22.70;99.90;;;;;;5011277;28;20065;-80
2022/07/14 11:25:52;;;;;;;1.58;0.25;;;22.70;99.90;;;;;;5008647;28;20052;-80
2022/07/14 11:28:32;;;;;;;1.05;0.28;;;22.70;99.90;;;;;;5029190;28;20601;-79
2022/07/14 11:31:07;;;;;;;1.48;0.38;;;22.80;99.90;;;;;;5024917;28;20072;-79
2022/07/14 11:33:33;;;;;;;2.47;0.32;;;22.90;99.90;;;;;;5014245;28;20091;-79
2022/07/14 11:36:17;;;;;;;2.22;0.40;;;22.90;99.90;;;;;;5015548;28;20507;-79
2022/07/14 11:38:43;;;;;;;2.47;0.40;;;22.90;99.90;;;;;;5014799;28;20077;-79
2022/07/14 11:41:12;;;;;;;2.13;0.30;;;22.90;99.90;;;;;;5004710;28;20081;-80
2022/07/14 11:43:39;;;;;;;3.72;0.43;;;22.90;99.90;;;;;;5011724;28;20121;-80
2022/07/14 11:46:07;;;;;;;2.47;0.30;;;23.00;99.90;;;;;;5008224;28;20530;-79
2022/07/14 11:48:35;;;;;;;1.63;0.32;;;22.90;99.90;;;;;;5019929;28;20050;-79
2022/07/14 11:51:24;;;;;;;2.05;0.45;;;22.90;99.90;;;;;;5029674;28;20412;-80
2022/07/14 11:54:01;;;;;;;1.38;0.30;;;22.70;99.90;;;;;;4996072;28;20054;-79
2022/07/14 11:56:28;;;;;;;2.33;0.45;;;22.60;99.90;;;;;;5010361;28;20029;-79
2022/07/14 11:59:07;;;;;;;1.65;0.52;;;22.90;99.90;;;;;;5011220;28;20149;-79
2022/07/14 12:01:38;;;;;;;2.83;0.43;;;23.20;99.90;;;;;;5010659;28;20144;-79
2022/07/14 12:04:14;;;;;;;4.90;0.85;;;23.70;99.90;;;;;;5012917;28;20050;-80
2022/07/14 12:06:44;;;;;;;2.47;0.30;;;23.90;99.90;;;;;;5022412;28;20049;-79
2022/07/14 12:09:11;;;;;;;1.58;0.45;;;23.90;99.90;;;;;;5010064;28;20042;-79
2022/07/14 12:11:36;;;;;;;2.15;0.75;;;24.20;99.90;;;;;;5011128;28;20037;-80
2022/07/14 12:14:03;;;;;;;2.42;0.40;;;24.30;99.90;;;;;;5010828;28;20053;-80
2022/07/14 12:16:41;;;;;;;1.90;0.45;;;24.40;99.90;;;;;;5014556;28;20037;-80
2022/07/14 12:19:07;;;;;;;3.97;0.30;;;24.60;99.90;;;;;;5005775;28;20111;-80
2022/07/14 12:21:35;;;;;;;1.90;0.30;;;24.50;98.70;;;;;;5008914;28;20056;-79
2022/07/14 12:24:01;;;;;;;1.10;0.20;;;24.20;98.20;;;;;;5022215;28;20033;-79
2022/07/14 12:26:27;;;;;;;1.90;0.30;;;23.90;98.70;;;;;;5021993;28;20038;-80
2022/07/14 12:28:59;;;;;;;1.80;0.80;;;23.80;98.80;;;;;;5026578;28;20704;-80
2022/07/14 12:31:24;;;;;;;2.17;0.55;;;23.70;99.30;;;;;;5006501;28;20081;-79
2022/07/14 12:33:53;;;;;;;2.05;0.50;;;23.50;99.30;;;;;;5004486;28;20222;-79
2022/07/14 12:36:22;;;;;;;1.95;0.40;;;23.30;99.10;;;;;;5006053;28;20045;-79
2022/07/14 12:38:48;;;;;;;4.97;0.60;;;23.30;99.50;;;;;;5023770;28;20077;-80
2022/07/14 12:41:17;;;;;;;2.95;0.32;;;23.10;99.40;;;;;;4992007;28;20077;-79
2022/07/14 12:43:44;;;;;;;2.40;0.60;;;23.10;99.30;;;;;;5005397;28;20519;-80
2022/07/14 12:46:16;;;;;;;2.33;0.30;;;23.00;98.70;;;;;;5015324;28;20254;-80
2022/07/14 12:48:48;;;;;;;1.02;0.22;;;23.00;98.60;;;;;;5025420;28;20049;-80
2022/07/14 12:51:30;;;;;;;2.63;0.55;;;23.00;98.90;;;;;;5009775;28;20077;-80
2022/07/14 12:53:55;;;;;;;2.72;0.50;;;23.00;98.90;;;;;;5011227;28;20112;-79
2022/07/14 12:56:22;;;;;;;1.42;0.30;;;22.90;99.30;;;;;;4993779;28;20446;-80
2022/07/14 12:58:48;;;;;;;4.18;0.40;;;22.80;99.50;;;;;;5008489;28;20500;-80